NOS85Y EDDS-LIPE
Flight info
| Callsign | NOS85Y |
|---|---|
| Flight time | 1h 0m |
| Altitude | 23000 |
| Route | ROTWE5B ROTWE Y126 TUBLO N850 NATOR/N0455F330 DCT TRA DCT ARGAX DCT RESIA DCT ATPED DCT TAGIP DCT MOVOR DCT ADOSA M738 BENUS |
| Aircraft | B38M/M-SDE1FGHILORVWXY/HB1 |
Departure
| Time | 2026-05-05 15:07 |
|---|---|
| Airport | Stuttgart Airport (EDDS) |
Arrival
| Time | 2026-05-05 16:07 |
|---|---|
| Airport | Bologna Guglielmo Marconi Airport (LIPE) |
| Time | Latitude | Longitude | Altitude | Speed | Heading |
|---|---|---|---|---|---|
| 2026-05-05 14:35 | 48.68854 | 9.19296 | 1288 ft | 0 kts | 344° |
| 2026-05-05 14:36 | 48.68866 | 9.19291 | 1288 ft | 0 kts | 344° |
| 2026-05-05 14:53 | 48.68860 | 9.19293 | 1288 ft | 4 kts | 344° |
| 2026-05-05 14:53 | 48.68834 | 9.19304 | 1288 ft | 4 kts | 344° |
| 2026-05-05 14:54 | 48.68812 | 9.19313 | 1288 ft | 4 kts | 356° |
| 2026-05-05 14:54 | 48.68791 | 9.19303 | 1288 ft | 4 kts | 53° |
| 2026-05-05 14:54 | 48.68782 | 9.19267 | 1288 ft | 4 kts | 78° |
| 2026-05-05 14:54 | 48.68777 | 9.19237 | 1288 ft | 0 kts | 74° |
| 2026-05-05 14:58 | 48.68784 | 9.19273 | 1288 ft | 7 kts | 74° |
| 2026-05-05 14:59 | 48.68799 | 9.19355 | 1278 ft | 10 kts | 73° |
| 2026-05-05 14:59 | 48.68825 | 9.19492 | 1288 ft | 15 kts | 74° |
| 2026-05-05 14:59 | 48.68853 | 9.19642 | 1288 ft | 14 kts | 74° |
| 2026-05-05 14:59 | 48.68880 | 9.19781 | 1288 ft | 13 kts | 75° |
| 2026-05-05 15:00 | 48.68850 | 9.19880 | 1288 ft | 11 kts | 159° |
| 2026-05-05 15:00 | 48.68823 | 9.19927 | 1288 ft | 9 kts | 105° |
| 2026-05-05 15:00 | 48.68846 | 9.20083 | 1288 ft | 17 kts | 73° |
| 2026-05-05 15:00 | 48.68886 | 9.20288 | 1288 ft | 21 kts | 74° |
| 2026-05-05 15:01 | 48.68925 | 9.20499 | 1288 ft | 20 kts | 74° |
| 2026-05-05 15:01 | 48.68962 | 9.20693 | 1288 ft | 18 kts | 74° |
| 2026-05-05 15:01 | 48.68998 | 9.20869 | 1288 ft | 17 kts | 71° |
| 2026-05-05 15:01 | 48.69027 | 9.21035 | 1288 ft | 17 kts | 75° |
| 2026-05-05 15:02 | 48.69068 | 9.21254 | 1288 ft | 27 kts | 73° |
| 2026-05-05 15:02 | 48.69121 | 9.21536 | 1288 ft | 28 kts | 74° |
| 2026-05-05 15:02 | 48.69173 | 9.21808 | 1288 ft | 26 kts | 74° |
| 2026-05-05 15:02 | 48.69225 | 9.22077 | 1288 ft | 28 kts | 75° |
| 2026-05-05 15:03 | 48.69284 | 9.22390 | 1288 ft | 31 kts | 74° |
| 2026-05-05 15:03 | 48.69340 | 9.22685 | 1288 ft | 29 kts | 74° |
| 2026-05-05 15:03 | 48.69394 | 9.22968 | 1288 ft | 27 kts | 73° |
| 2026-05-05 15:03 | 48.69447 | 9.23239 | 1288 ft | 26 kts | 74° |
| 2026-05-05 15:04 | 48.69494 | 9.23503 | 1288 ft | 26 kts | 74° |
| 2026-05-05 15:04 | 48.69544 | 9.23759 | 1288 ft | 25 kts | 74° |
| 2026-05-05 15:04 | 48.69591 | 9.24008 | 1288 ft | 25 kts | 73° |
| 2026-05-05 15:04 | 48.69597 | 9.24191 | 1288 ft | 17 kts | 115° |
| 2026-05-05 15:05 | 48.69395 | 9.24289 | 1288 ft | 19 kts | 221° |
| 2026-05-05 15:05 | 48.69373 | 9.24223 | 1288 ft | 0 kts | 255° |
| 2026-05-05 15:06 | 48.69337 | 9.24025 | 1288 ft | 52 kts | 254° |
| 2026-05-05 15:06 | 48.69174 | 9.23168 | 1288 ft | 116 kts | 254° |
| 2026-05-05 15:06 | 48.68900 | 9.21730 | 1294 ft | 166 kts | 255° |
| 2026-05-05 15:06 | 48.68578 | 9.19928 | 1725 ft | 184 kts | 258° |
| 2026-05-05 15:07 | 48.68261 | 9.18054 | 2617 ft | 178 kts | 255° |
| 2026-05-05 15:07 | 48.67929 | 9.16253 | 3345 ft | 186 kts | 255° |
| 2026-05-05 15:07 | 48.67557 | 9.14266 | 3742 ft | 208 kts | 253° |
| 2026-05-05 15:07 | 48.67134 | 9.12051 | 3825 ft | 225 kts | 253° |
| 2026-05-05 15:08 | 48.66701 | 9.09803 | 4769 ft | 229 kts | 252° |
| 2026-05-05 15:08 | 48.66231 | 9.07397 | 5350 ft | 248 kts | 250° |
| 2026-05-05 15:08 | 48.65415 | 9.05038 | 5981 ft | 260 kts | 228° |
| 2026-05-05 15:08 | 48.64127 | 9.03155 | 7019 ft | 258 kts | 223° |
| 2026-05-05 15:09 | 48.62826 | 9.01236 | 7910 ft | 262 kts | 224° |
| 2026-05-05 15:09 | 48.61531 | 8.99300 | 8859 ft | 264 kts | 225° |
| 2026-05-05 15:09 | 48.60234 | 8.97345 | 9759 ft | 267 kts | 225° |
| 2026-05-05 15:09 | 48.58898 | 8.95318 | 10396 ft | 280 kts | 225° |
| 2026-05-05 15:10 | 48.57478 | 8.93153 | 10755 ft | 300 kts | 225° |
| 2026-05-05 15:10 | 48.55965 | 8.90842 | 11181 ft | 317 kts | 225° |
| 2026-05-05 15:10 | 48.54387 | 8.88433 | 11723 ft | 329 kts | 226° |
| 2026-05-05 15:10 | 48.52762 | 8.85957 | 12463 ft | 333 kts | 226° |
| 2026-05-05 15:11 | 48.51127 | 8.83469 | 13235 ft | 337 kts | 226° |
| 2026-05-05 15:11 | 48.49461 | 8.80937 | 13962 ft | 341 kts | 226° |
| 2026-05-05 15:11 | 48.47779 | 8.78382 | 14640 ft | 346 kts | 226° |
| 2026-05-05 15:11 | 48.46046 | 8.75848 | 15299 ft | 350 kts | 219° |
| 2026-05-05 15:12 | 48.43888 | 8.74147 | 15998 ft | 355 kts | 197° |
| 2026-05-05 15:12 | 48.41415 | 8.73771 | 16655 ft | 362 kts | 178° |
| 2026-05-05 15:12 | 48.38941 | 8.74569 | 17340 ft | 367 kts | 163° |
| 2026-05-05 15:12 | 48.36486 | 8.75639 | 18004 ft | 370 kts | 167° |
| 2026-05-05 15:13 | 48.33993 | 8.76657 | 18585 ft | 373 kts | 167° |
| 2026-05-05 15:13 | 48.32327 | 8.77349 | 18977 ft | 375 kts | 166° |
| 2026-05-05 15:13 | 48.29807 | 8.78404 | 19537 ft | 378 kts | 166° |
| 2026-05-05 15:13 | 48.27259 | 8.79476 | 20102 ft | 381 kts | 166° |
| 2026-05-05 15:14 | 48.23860 | 8.80906 | 20841 ft | 385 kts | 166° |
| 2026-05-05 15:14 | 48.21271 | 8.81994 | 21386 ft | 388 kts | 166° |
| 2026-05-05 15:14 | 48.19510 | 8.82734 | 21769 ft | 389 kts | 166° |
| 2026-05-05 15:14 | 48.16896 | 8.83832 | 22292 ft | 393 kts | 166° |
| 2026-05-05 15:15 | 48.14248 | 8.84940 | 22832 ft | 395 kts | 166° |
| 2026-05-05 15:15 | 48.11591 | 8.86055 | 23363 ft | 398 kts | 166° |
| 2026-05-05 15:15 | 48.08913 | 8.87174 | 23789 ft | 401 kts | 166° |
| 2026-05-05 15:15 | 48.06259 | 8.88283 | 24246 ft | 403 kts | 166° |
| 2026-05-05 15:16 | 48.03546 | 8.89416 | 24703 ft | 404 kts | 166° |
| 2026-05-05 15:16 | 48.00823 | 8.90553 | 25148 ft | 406 kts | 166° |
| 2026-05-05 15:16 | 47.98102 | 8.91687 | 25585 ft | 408 kts | 166° |
| 2026-05-05 15:16 | 47.95356 | 8.92831 | 26011 ft | 410 kts | 166° |
| 2026-05-05 15:17 | 47.92600 | 8.93976 | 26431 ft | 412 kts | 166° |
| 2026-05-05 15:17 | 47.89831 | 8.95127 | 26838 ft | 414 kts | 166° |
| 2026-05-05 15:17 | 47.87044 | 8.96283 | 27247 ft | 416 kts | 166° |
| 2026-05-05 15:17 | 47.84250 | 8.97442 | 27638 ft | 418 kts | 166° |
| 2026-05-05 15:18 | 47.81439 | 8.98606 | 28046 ft | 420 kts | 166° |
| 2026-05-05 15:18 | 47.78613 | 8.99775 | 28419 ft | 422 kts | 166° |
| 2026-05-05 15:18 | 47.75786 | 9.00944 | 28800 ft | 424 kts | 166° |
| 2026-05-05 15:18 | 47.72921 | 9.02127 | 29156 ft | 426 kts | 166° |
| 2026-05-05 15:19 | 47.70062 | 9.03306 | 29502 ft | 429 kts | 166° |
| 2026-05-05 15:19 | 47.67178 | 9.04495 | 29845 ft | 431 kts | 166° |
| 2026-05-05 15:19 | 47.64284 | 9.05686 | 30137 ft | 433 kts | 166° |
| 2026-05-05 15:19 | 47.61370 | 9.06883 | 30425 ft | 435 kts | 167° |
| 2026-05-05 15:20 | 47.58483 | 9.08069 | 30683 ft | 437 kts | 167° |
| 2026-05-05 15:20 | 47.55543 | 9.09276 | 31002 ft | 439 kts | 167° |
| 2026-05-05 15:20 | 47.52601 | 9.10483 | 31385 ft | 438 kts | 167° |
| 2026-05-05 15:20 | 47.49667 | 9.11686 | 31773 ft | 437 kts | 168° |
| 2026-05-05 15:21 | 47.46740 | 9.12884 | 32157 ft | 436 kts | 168° |
| 2026-05-05 15:21 | 47.43814 | 9.14081 | 32551 ft | 435 kts | 168° |
| 2026-05-05 15:21 | 47.40906 | 9.15269 | 32937 ft | 434 kts | 169° |
| 2026-05-05 15:21 | 47.38001 | 9.16454 | 33321 ft | 432 kts | 169° |
| 2026-05-05 15:22 | 47.35104 | 9.17633 | 33716 ft | 431 kts | 169° |
| 2026-05-05 15:22 | 47.32212 | 9.18809 | 34054 ft | 430 kts | 169° |
| 2026-05-05 15:22 | 47.29317 | 9.19986 | 34381 ft | 429 kts | 169° |
| 2026-05-05 15:22 | 47.26437 | 9.21154 | 34644 ft | 430 kts | 169° |
| 2026-05-05 15:23 | 47.23590 | 9.22306 | 34878 ft | 430 kts | 169° |
| 2026-05-05 15:23 | 47.20702 | 9.23475 | 35200 ft | 429 kts | 169° |
| 2026-05-05 15:23 | 47.17823 | 9.24638 | 35460 ft | 430 kts | 169° |
| 2026-05-05 15:23 | 47.14929 | 9.25807 | 35667 ft | 430 kts | 170° |
| 2026-05-05 15:24 | 47.12037 | 9.26972 | 35926 ft | 431 kts | 169° |
| 2026-05-05 15:24 | 47.09149 | 9.28135 | 36135 ft | 431 kts | 170° |
| 2026-05-05 15:24 | 47.06274 | 9.29435 | 36348 ft | 435 kts | 161° |
| 2026-05-05 15:24 | 47.03654 | 9.31746 | 36573 ft | 446 kts | 146° |
| 2026-05-05 15:25 | 47.01317 | 9.34747 | 36776 ft | 448 kts | 144° |
| 2026-05-05 15:25 | 46.98974 | 9.37785 | 36881 ft | 450 kts | 144° |
| 2026-05-05 15:25 | 46.96643 | 9.40838 | 36866 ft | 450 kts | 144° |
| 2026-05-05 15:26 | 46.91988 | 9.46960 | 36887 ft | 450 kts | 144° |
| 2026-05-05 15:26 | 46.87358 | 9.53038 | 36868 ft | 450 kts | 144° |
| 2026-05-05 15:27 | 46.82687 | 9.59152 | 36879 ft | 451 kts | 144° |
| 2026-05-05 15:27 | 46.78007 | 9.65267 | 36902 ft | 451 kts | 144° |
| 2026-05-05 15:28 | 46.73332 | 9.71358 | 36939 ft | 451 kts | 144° |
| 2026-05-05 15:28 | 46.68658 | 9.77438 | 36949 ft | 450 kts | 144° |
| 2026-05-05 15:29 | 46.63984 | 9.83495 | 36973 ft | 450 kts | 144° |
| 2026-05-05 15:29 | 46.59302 | 9.89552 | 36936 ft | 449 kts | 145° |
| 2026-05-05 15:30 | 46.54656 | 9.95549 | 36921 ft | 449 kts | 145° |
| 2026-05-05 15:30 | 46.49937 | 10.01569 | 36948 ft | 446 kts | 148° |
| 2026-05-05 15:31 | 46.44744 | 10.06135 | 36933 ft | 441 kts | 155° |
| 2026-05-05 15:31 | 46.39473 | 10.10736 | 36958 ft | 443 kts | 155° |
| 2026-05-05 15:32 | 46.34192 | 10.15326 | 36965 ft | 443 kts | 155° |
| 2026-05-05 15:32 | 46.28894 | 10.19922 | 36981 ft | 444 kts | 155° |
| 2026-05-05 15:33 | 46.23593 | 10.24510 | 36982 ft | 444 kts | 155° |
| 2026-05-05 15:33 | 46.18278 | 10.29097 | 36982 ft | 444 kts | 155° |
| 2026-05-05 15:34 | 46.12959 | 10.33679 | 36981 ft | 445 kts | 155° |
| 2026-05-05 15:34 | 46.07629 | 10.38261 | 36984 ft | 446 kts | 155° |
| 2026-05-05 15:35 | 46.02354 | 10.42783 | 36231 ft | 443 kts | 155° |
| 2026-05-05 15:35 | 45.99693 | 10.45061 | 35429 ft | 446 kts | 155° |
| 2026-05-05 15:35 | 45.97018 | 10.47350 | 34700 ft | 447 kts | 155° |
| 2026-05-05 15:35 | 45.94348 | 10.49630 | 34032 ft | 447 kts | 155° |
| 2026-05-05 15:36 | 45.91671 | 10.51913 | 33186 ft | 448 kts | 155° |
| 2026-05-05 15:36 | 45.88988 | 10.54200 | 32411 ft | 448 kts | 155° |
| 2026-05-05 15:36 | 45.86310 | 10.56481 | 31806 ft | 445 kts | 155° |
| 2026-05-05 15:36 | 45.83662 | 10.58733 | 31277 ft | 440 kts | 155° |
| 2026-05-05 15:37 | 45.81041 | 10.60959 | 30732 ft | 436 kts | 155° |
| 2026-05-05 15:37 | 45.78441 | 10.63165 | 30216 ft | 433 kts | 155° |
| 2026-05-05 15:37 | 45.75852 | 10.65357 | 29538 ft | 431 kts | 155° |
| 2026-05-05 15:37 | 45.73277 | 10.67538 | 28975 ft | 428 kts | 155° |
| 2026-05-05 15:38 | 45.70732 | 10.69690 | 28431 ft | 424 kts | 155° |
| 2026-05-05 15:38 | 45.68207 | 10.71823 | 27908 ft | 420 kts | 155° |
| 2026-05-05 15:38 | 45.65701 | 10.73938 | 27380 ft | 417 kts | 155° |
| 2026-05-05 15:38 | 45.63214 | 10.76034 | 26854 ft | 414 kts | 155° |
| 2026-05-05 15:39 | 45.60735 | 10.78120 | 26327 ft | 412 kts | 156° |
| 2026-05-05 15:39 | 45.58162 | 10.79851 | 25549 ft | 408 kts | 168° |
| 2026-05-05 15:39 | 45.55466 | 10.80928 | 24913 ft | 408 kts | 169° |
| 2026-05-05 15:39 | 45.52764 | 10.82118 | 24431 ft | 405 kts | 168° |
| 2026-05-05 15:40 | 45.50076 | 10.83319 | 23930 ft | 403 kts | 168° |
| 2026-05-05 15:40 | 45.47403 | 10.84517 | 23382 ft | 402 kts | 168° |
| 2026-05-05 15:40 | 45.44743 | 10.85709 | 22814 ft | 400 kts | 168° |
| 2026-05-05 15:40 | 45.42099 | 10.86894 | 22283 ft | 396 kts | 168° |
| 2026-05-05 15:41 | 45.39479 | 10.88066 | 21786 ft | 393 kts | 168° |
| 2026-05-05 15:41 | 45.36881 | 10.89227 | 21301 ft | 390 kts | 168° |
| 2026-05-05 15:41 | 45.34301 | 10.90380 | 20827 ft | 387 kts | 168° |
| 2026-05-05 15:41 | 45.31744 | 10.91520 | 20354 ft | 384 kts | 168° |
| 2026-05-05 15:42 | 45.29209 | 10.92649 | 19892 ft | 381 kts | 168° |
| 2026-05-05 15:42 | 45.26687 | 10.93773 | 19399 ft | 378 kts | 168° |
| 2026-05-05 15:42 | 45.24182 | 10.94887 | 18956 ft | 376 kts | 168° |
| 2026-05-05 15:42 | 45.21698 | 10.95991 | 18514 ft | 373 kts | 168° |
| 2026-05-05 15:43 | 45.19221 | 10.97091 | 18048 ft | 371 kts | 168° |
| 2026-05-05 15:43 | 45.16764 | 10.98181 | 17566 ft | 368 kts | 168° |
| 2026-05-05 15:43 | 45.14333 | 10.99259 | 17135 ft | 365 kts | 168° |
| 2026-05-05 15:43 | 45.11924 | 11.00326 | 16719 ft | 361 kts | 168° |
| 2026-05-05 15:44 | 45.09560 | 11.01371 | 16303 ft | 358 kts | 168° |
| 2026-05-05 15:44 | 45.07162 | 11.02430 | 15890 ft | 355 kts | 168° |
| 2026-05-05 15:44 | 45.04810 | 11.03470 | 15488 ft | 352 kts | 168° |
| 2026-05-05 15:44 | 45.02510 | 11.04485 | 15102 ft | 350 kts | 168° |
| 2026-05-05 15:45 | 45.00194 | 11.05505 | 14700 ft | 347 kts | 168° |
| 2026-05-05 15:45 | 44.97896 | 11.06518 | 14304 ft | 345 kts | 168° |
| 2026-05-05 15:45 | 44.95607 | 11.07526 | 13904 ft | 344 kts | 167° |
| 2026-05-05 15:45 | 44.93327 | 11.08529 | 13477 ft | 342 kts | 167° |
| 2026-05-05 15:46 | 44.91059 | 11.09525 | 13058 ft | 340 kts | 167° |
| 2026-05-05 15:46 | 44.88810 | 11.10513 | 12654 ft | 338 kts | 167° |
| 2026-05-05 15:46 | 44.86570 | 11.11497 | 12266 ft | 335 kts | 167° |
| 2026-05-05 15:46 | 44.84358 | 11.12466 | 11887 ft | 332 kts | 167° |
| 2026-05-05 15:47 | 44.82157 | 11.13430 | 11491 ft | 330 kts | 167° |
| 2026-05-05 15:47 | 44.80711 | 11.14063 | 11233 ft | 328 kts | 167° |
| 2026-05-05 15:47 | 44.77829 | 11.15324 | 10901 ft | 319 kts | 167° |
| 2026-05-05 15:47 | 44.75738 | 11.16238 | 10751 ft | 310 kts | 167° |
| 2026-05-05 15:48 | 44.73707 | 11.17126 | 10601 ft | 300 kts | 167° |
| 2026-05-05 15:48 | 44.71742 | 11.17983 | 10468 ft | 292 kts | 167° |
| 2026-05-05 15:48 | 44.69833 | 11.18826 | 10309 ft | 284 kts | 165° |
| 2026-05-05 15:48 | 44.68150 | 11.20254 | 10141 ft | 285 kts | 139° |
| 2026-05-05 15:49 | 44.67031 | 11.22527 | 10022 ft | 282 kts | 121° |
| 2026-05-05 15:49 | 44.66159 | 11.24918 | 9846 ft | 278 kts | 121° |
| 2026-05-05 15:49 | 44.65264 | 11.27370 | 9516 ft | 285 kts | 121° |
| 2026-05-05 15:49 | 44.64361 | 11.29860 | 9189 ft | 288 kts | 121° |
| 2026-05-05 15:50 | 44.63445 | 11.32380 | 8839 ft | 290 kts | 121° |
| 2026-05-05 15:50 | 44.62534 | 11.34891 | 8535 ft | 288 kts | 121° |
| 2026-05-05 15:50 | 44.61631 | 11.37378 | 8254 ft | 285 kts | 121° |
| 2026-05-05 15:50 | 44.60732 | 11.39848 | 7974 ft | 283 kts | 121° |
| 2026-05-05 15:51 | 44.59840 | 11.42299 | 7690 ft | 281 kts | 121° |
| 2026-05-05 15:51 | 44.58965 | 11.44703 | 7546 ft | 272 kts | 121° |
| 2026-05-05 15:51 | 44.58118 | 11.47043 | 7360 ft | 266 kts | 120° |
| 2026-05-05 15:51 | 44.57292 | 11.49354 | 7082 ft | 264 kts | 120° |
| 2026-05-05 15:52 | 44.56470 | 11.51650 | 6820 ft | 262 kts | 120° |
| 2026-05-05 15:52 | 44.55651 | 11.53931 | 6546 ft | 261 kts | 120° |
| 2026-05-05 15:52 | 44.54838 | 11.56196 | 6276 ft | 260 kts | 120° |
| 2026-05-05 15:52 | 44.54027 | 11.58450 | 6004 ft | 257 kts | 120° |
| 2026-05-05 15:53 | 44.53149 | 11.60590 | 5778 ft | 250 kts | 134° |
| 2026-05-05 15:53 | 44.51795 | 11.62010 | 5489 ft | 240 kts | 162° |
| 2026-05-05 15:53 | 44.50196 | 11.62395 | 5233 ft | 231 kts | 187° |
| 2026-05-05 15:53 | 44.48672 | 11.61859 | 5038 ft | 222 kts | 205° |
| 2026-05-05 15:54 | 44.47282 | 11.61034 | 4921 ft | 212 kts | 207° |
| 2026-05-05 15:54 | 44.45970 | 11.60210 | 4817 ft | 202 kts | 207° |
| 2026-05-05 15:54 | 44.44823 | 11.59208 | 4628 ft | 197 kts | 230° |
| 2026-05-05 15:54 | 44.44239 | 11.57543 | 4459 ft | 190 kts | 262° |
| 2026-05-05 15:55 | 44.44301 | 11.55733 | 4330 ft | 184 kts | 278° |
| 2026-05-05 15:55 | 44.44639 | 11.53982 | 4366 ft | 190 kts | 287° |
| 2026-05-05 15:55 | 44.45157 | 11.52248 | 4128 ft | 196 kts | 291° |
| 2026-05-05 15:55 | 44.45747 | 11.50521 | 3830 ft | 197 kts | 293° |
| 2026-05-05 15:56 | 44.46361 | 11.48804 | 3537 ft | 197 kts | 294° |
| 2026-05-05 15:56 | 44.46978 | 11.47094 | 3233 ft | 196 kts | 294° |
| 2026-05-05 15:56 | 44.47593 | 11.45388 | 2926 ft | 196 kts | 294° |
| 2026-05-05 15:56 | 44.48252 | 11.43618 | 3029 ft | 214 kts | 296° |
| 2026-05-05 15:57 | 44.49017 | 11.41739 | 3199 ft | 232 kts | 298° |
| 2026-05-05 15:57 | 44.49856 | 11.39699 | 3326 ft | 250 kts | 298° |
| 2026-05-05 15:57 | 44.50755 | 11.37538 | 3589 ft | 263 kts | 303° |
| 2026-05-05 15:57 | 44.52020 | 11.35669 | 3923 ft | 266 kts | 317° |
| 2026-05-05 15:58 | 44.53463 | 11.34038 | 4050 ft | 267 kts | 319° |
| 2026-05-05 15:58 | 44.54915 | 11.32425 | 4096 ft | 267 kts | 319° |
| 2026-05-05 15:58 | 44.56371 | 11.30803 | 4098 ft | 267 kts | 319° |
| 2026-05-05 15:58 | 44.57804 | 11.29195 | 4106 ft | 267 kts | 319° |
| 2026-05-05 15:59 | 44.59276 | 11.27536 | 4088 ft | 268 kts | 319° |
| 2026-05-05 15:59 | 44.60604 | 11.25732 | 3822 ft | 266 kts | 305° |
| 2026-05-05 15:59 | 44.61574 | 11.23577 | 3591 ft | 263 kts | 298° |
| 2026-05-05 15:59 | 44.62459 | 11.21360 | 3348 ft | 260 kts | 298° |
| 2026-05-05 16:00 | 44.63318 | 11.19128 | 3102 ft | 257 kts | 298° |
| 2026-05-05 16:00 | 44.64148 | 11.16927 | 2848 ft | 255 kts | 298° |
| 2026-05-05 16:00 | 44.64959 | 11.14735 | 2655 ft | 249 kts | 298° |
| 2026-05-05 16:00 | 44.65727 | 11.12630 | 2668 ft | 234 kts | 298° |
| 2026-05-05 16:01 | 44.66447 | 11.10648 | 2655 ft | 221 kts | 298° |
| 2026-05-05 16:01 | 44.67114 | 11.08791 | 2665 ft | 204 kts | 296° |
| 2026-05-05 16:01 | 44.67410 | 11.06928 | 2600 ft | 193 kts | 268° |
| 2026-05-05 16:01 | 44.67228 | 11.05715 | 2564 ft | 192 kts | 248° |
| 2026-05-05 16:02 | 44.66455 | 11.04216 | 2596 ft | 192 kts | 221° |
| 2026-05-05 16:02 | 44.65285 | 11.03361 | 2619 ft | 191 kts | 191° |
| 2026-05-05 16:02 | 44.63588 | 11.03671 | 2637 ft | 189 kts | 152° |
| 2026-05-05 16:02 | 44.62867 | 11.04393 | 2647 ft | 188 kts | 136° |
| 2026-05-05 16:03 | 44.62000 | 11.05766 | 2659 ft | 188 kts | 126° |
| 2026-05-05 16:03 | 44.61307 | 11.07322 | 2639 ft | 188 kts | 118° |
| 2026-05-05 16:03 | 44.60699 | 11.08947 | 2628 ft | 188 kts | 117° |
| 2026-05-05 16:03 | 44.60110 | 11.10583 | 2613 ft | 188 kts | 117° |
| 2026-05-05 16:04 | 44.59522 | 11.12223 | 2480 ft | 188 kts | 116° |
| 2026-05-05 16:04 | 44.58933 | 11.13862 | 2247 ft | 187 kts | 116° |
| 2026-05-05 16:04 | 44.58350 | 11.15485 | 2010 ft | 183 kts | 116° |
| 2026-05-05 16:04 | 44.57811 | 11.16997 | 1805 ft | 166 kts | 115° |
| 2026-05-05 16:05 | 44.57318 | 11.18367 | 1609 ft | 149 kts | 115° |
| 2026-05-05 16:05 | 44.56855 | 11.19653 | 1420 ft | 148 kts | 114° |
| 2026-05-05 16:05 | 44.56395 | 11.20936 | 1202 ft | 147 kts | 115° |
| 2026-05-05 16:05 | 44.55929 | 11.22215 | 1012 ft | 147 kts | 115° |
| 2026-05-05 16:06 | 44.55463 | 11.23508 | 797 ft | 150 kts | 113° |
| 2026-05-05 16:06 | 44.55003 | 11.24828 | 569 ft | 152 kts | 113° |
| 2026-05-05 16:06 | 44.54519 | 11.26133 | 368 ft | 148 kts | 115° |
| 2026-05-05 16:06 | 44.54060 | 11.27415 | 193 ft | 146 kts | 113° |
| 2026-05-05 16:07 | 44.53630 | 11.28628 | 129 ft | 119 kts | 116° |
| 2026-05-05 16:07 | 44.53370 | 11.29349 | 133 ft | 50 kts | 118° |
| 2026-05-05 16:07 | 44.53250 | 11.29588 | 133 ft | 27 kts | 137° |
| 2026-05-05 16:07 | 44.53099 | 11.29737 | 132 ft | 12 kts | 146° |
| 2026-05-05 16:08 | 44.53030 | 11.29786 | 133 ft | 11 kts | 168° |
| 2026-05-05 16:08 | 44.52982 | 11.29750 | 133 ft | 8 kts | 262° |
| 2026-05-05 16:08 | 44.53006 | 11.29674 | 133 ft | 10 kts | 297° |
| 2026-05-05 16:08 | 44.53040 | 11.29581 | 133 ft | 12 kts | 296° |
| 2026-05-05 16:09 | 44.53048 | 11.29512 | 133 ft | 3 kts | 232° |
| 2026-05-05 16:09 | 44.53029 | 11.29496 | 133 ft | 2 kts | 206° |
| 2026-05-05 16:09 | 44.53014 | 11.29486 | 133 ft | 0 kts | 206° |